BNS weather

Barinas Airport
Barinas, Barinas, Venezuela

Public forecast

Using degrees Celsius for public forecast. Weather courtesy of forecast.io.

Current aviation weather report (METAR) for Barinas Airport

Report is more than 6 hours old.

Retrieved 2018/11/27 21:00 UTC (2 years ago):

SVBI 272100Z /////KT 9999 SCT017 SCT070 29/21 Q1009

Closest aviation forecast (TAF) to Barinas Airport

Forecast is more than 6 hours old.

Closest forecast is Barquisimeto International Airport, 99.6 nm (184.4 km) NNE. Retrieved 2020/08/07 12:30 UTC (6 hours ago):

TAF TAF SVBM 071124Z 0712/0812 10007KT 8000 BR FEW013 SCT070 TX32/0718Z TN22/0808Z BECMG 0714/0718 11010KT 7000 VCTSDZ FEW013CB BKN070